createdAt,value
2018-06-28T00:00:05.517Z,52.80
2018-06-28T00:01:10.329Z,53.10
2018-06-28T00:02:13.747Z,52.80
2018-06-28T00:03:17.160Z,52.80
2018-06-28T00:05:24.829Z,52.90
2018-06-28T00:06:29.053Z,52.80
2018-06-28T00:07:32.438Z,52.80
2018-06-28T00:08:35.875Z,52.80
2018-06-28T00:09:39.272Z,52.90
2018-06-28T00:10:43.669Z,53.00
2018-06-28T00:11:47.068Z,53.00
2018-06-28T00:12:50.444Z,53.10
2018-06-28T00:13:53.839Z,53.30
2018-06-28T00:14:57.232Z,53.40
2018-06-28T00:16:02.164Z,53.50
2018-06-28T00:18:08.711Z,53.70
2018-06-28T00:19:12.123Z,53.80
2018-06-28T00:20:16.463Z,53.90
2018-06-28T00:24:30.780Z,54.20
2018-06-28T00:25:35.297Z,54.30
2018-06-28T00:26:38.772Z,54.40
2018-06-28T00:27:42.165Z,54.50
2018-06-28T00:28:45.548Z,54.60
2018-06-28T00:29:48.972Z,54.60
2018-06-28T00:30:53.620Z,54.60
2018-06-28T00:31:57.028Z,54.60
2018-06-28T00:33:00.412Z,54.80
2018-06-28T00:34:03.812Z,54.70
2018-06-28T00:35:08.201Z,54.70
2018-06-28T00:36:12.649Z,54.70
2018-06-28T00:37:16.053Z,54.70
2018-06-28T00:38:19.451Z,54.80
2018-06-28T00:40:27.309Z,54.80
2018-06-28T00:44:40.057Z,55.20
2018-06-28T00:46:47.463Z,55.00
2018-06-28T00:48:54.097Z,55.30
2018-06-28T00:49:57.503Z,55.40
2018-06-28T00:51:02.046Z,55.50
2018-06-28T00:52:05.475Z,55.70
2018-06-28T00:53:08.882Z,55.80
2018-06-28T00:54:12.275Z,56.00
2018-06-28T00:55:16.801Z,56.50
2018-06-28T00:56:21.288Z,56.20
2018-06-28T00:57:24.693Z,56.30
2018-06-28T00:58:28.072Z,56.50
2018-06-28T00:59:31.456Z,56.70
2018-06-28T01:00:36.352Z,56.70
2018-06-28T01:01:39.776Z,56.80
2018-06-28T01:04:49.357Z,56.90
2018-06-28T01:05:53.833Z,56.90
2018-06-28T01:06:57.243Z,56.80
2018-06-28T01:08:00.639Z,56.80
2018-06-28T01:09:06.033Z,56.80
2018-06-28T01:10:10.906Z,56.70
2018-06-28T01:11:15.669Z,56.70
2018-06-28T01:12:19.091Z,56.70
2018-06-28T01:13:22.500Z,56.80
2018-06-28T01:14:25.893Z,56.80
2018-06-28T01:15:30.418Z,56.70
2018-06-28T01:17:36.953Z,57.30
2018-06-28T01:18:40.378Z,56.80
2018-06-28T01:19:43.922Z,56.90
2018-06-28T01:20:48.538Z,57.00
2018-06-28T01:21:51.992Z,57.10
2018-06-28T01:25:01.615Z,57.30
2018-06-28T01:26:06.094Z,57.30
2018-06-28T01:27:09.525Z,57.40
2018-06-28T01:29:16.555Z,57.50
2018-06-28T01:30:21.109Z,57.60
2018-06-28T01:31:26.090Z,57.60
2018-06-28T01:32:29.519Z,57.70
2018-06-28T01:33:32.891Z,57.80
2018-06-28T01:34:36.307Z,57.80
2018-06-28T01:35:41.302Z,57.80
2018-06-28T01:36:44.719Z,57.90
2018-06-28T01:38:51.304Z,57.90
2018-06-28T01:39:54.680Z,57.90
2018-06-28T01:42:13.723Z,58.00
2018-06-28T01:43:37.807Z,57.90
2018-06-28T01:45:46.101Z,58.10
2018-06-28T01:46:49.561Z,58.10
2018-06-28T01:47:52.959Z,58.30
2018-06-28T01:48:56.351Z,58.30
2018-06-28T01:49:59.739Z,58.40
2018-06-28T01:51:04.997Z,58.50
2018-06-28T01:52:08.422Z,58.60
2018-06-28T01:53:11.816Z,58.80
2018-06-28T01:54:15.211Z,58.90
2018-06-28T01:55:19.545Z,58.90
2018-06-28T01:56:23.890Z,58.90
2018-06-28T01:57:27.287Z,59.00
2018-06-28T01:58:30.684Z,59.10
2018-06-28T01:59:34.076Z,59.10
2018-06-28T02:00:38.921Z,59.20
2018-06-28T02:01:42.323Z,59.30
2018-06-28T02:02:45.726Z,59.40
2018-06-28T02:03:49.152Z,59.40
2018-06-28T02:04:52.524Z,59.50
2018-06-28T02:05:58.245Z,59.60
2018-06-28T02:07:01.664Z,59.70
2018-06-28T02:08:05.215Z,59.80
2018-06-28T02:09:09.780Z,60.40
2018-06-28T02:10:14.178Z,59.90
2018-06-28T02:11:18.574Z,60.00
2018-06-28T02:12:21.988Z,60.10
2018-06-28T02:13:25.379Z,60.30
2018-06-28T02:14:28.783Z,60.40
2018-06-28T02:15:34.030Z,60.60
2018-06-28T02:16:37.455Z,60.70
2018-06-28T02:17:40.836Z,60.80
2018-06-28T02:18:44.436Z,60.90
2018-06-28T02:19:47.868Z,61.00
2018-06-28T02:21:55.571Z,61.30
2018-06-28T02:22:58.959Z,61.30
2018-06-28T02:24:02.357Z,61.40
2018-06-28T02:25:06.855Z,61.50
2018-06-28T02:26:11.355Z,61.60
2018-06-28T02:27:14.760Z,61.80
2018-06-28T02:28:18.150Z,61.80
2018-06-28T02:29:22.131Z,61.90
2018-06-28T02:31:30.351Z,62.40
2018-06-28T02:32:33.744Z,62.30
2018-06-28T02:33:37.180Z,62.40
2018-06-28T02:34:40.561Z,62.50
2018-06-28T02:35:45.986Z,62.50
2018-06-28T02:36:49.438Z,62.80
2018-06-28T02:37:52.828Z,62.90
2018-06-28T02:38:56.219Z,63.10
2018-06-28T02:39:59.891Z,63.20
2018-06-28T02:41:05.548Z,63.40
2018-06-28T02:42:09.005Z,64.40
2018-06-28T02:43:12.402Z,63.90
2018-06-28T02:44:15.805Z,64.80
2018-06-28T02:45:20.278Z,64.30
2018-06-28T02:46:24.898Z,64.60
2018-06-28T02:47:28.307Z,64.70
2018-06-28T02:48:31.728Z,64.80
2018-06-28T02:49:35.130Z,64.90
2018-06-28T02:50:39.510Z,65.20
2018-06-28T02:51:42.956Z,65.30
2018-06-28T02:52:46.340Z,65.40
2018-06-28T02:53:49.736Z,66.20
2018-06-28T02:54:53.156Z,65.60
2018-06-28T02:55:57.600Z,65.60
2018-06-28T02:57:01.036Z,65.70
2018-06-28T02:58:04.452Z,65.80
2018-06-28T02:59:07.845Z,65.70
2018-06-28T03:00:12.201Z,66.40
2018-06-28T03:01:17.061Z,65.90
2018-06-28T03:02:20.492Z,66.00
2018-06-28T03:03:23.869Z,66.10
2018-06-28T03:04:27.246Z,66.30
2018-06-28T03:05:32.098Z,66.30
2018-06-28T03:06:35.508Z,66.50
2018-06-28T03:07:38.903Z,66.70
2018-06-28T03:08:42.284Z,66.90
2018-06-28T03:09:45.666Z,67.20
2018-06-28T03:10:50.183Z,67.30
2018-06-28T03:11:53.588Z,67.40
2018-06-28T03:12:56.971Z,67.60
2018-06-28T03:14:00.348Z,67.70
2018-06-28T03:15:04.380Z,67.80
2018-06-28T03:16:08.704Z,67.90
2018-06-28T03:17:12.128Z,68.00
2018-06-28T03:18:15.500Z,68.10
2018-06-28T03:19:18.875Z,68.20
2018-06-28T03:20:23.332Z,68.30
2018-06-28T03:21:27.699Z,68.40
2018-06-28T03:22:31.110Z,68.50
2018-06-28T03:23:34.480Z,68.50
2018-06-28T03:24:37.891Z,68.60
2018-06-28T03:25:42.550Z,68.80
2018-06-28T03:26:45.986Z,68.90
2018-06-28T03:27:49.511Z,69.10
2018-06-28T03:28:52.919Z,69.20
2018-06-28T03:29:56.344Z,69.20
2018-06-28T03:31:00.897Z,69.30
2018-06-28T03:32:04.255Z,69.40
2018-06-28T03:33:07.668Z,69.50
2018-06-28T03:34:11.072Z,69.60
2018-06-28T03:35:15.577Z,69.70
2018-06-28T03:37:22.720Z,70.10
2018-06-28T03:38:26.112Z,70.20
2018-06-28T03:39:29.492Z,70.50
2018-06-28T03:40:33.971Z,70.70
2018-06-28T03:41:37.391Z,70.80
2018-06-28T03:42:40.776Z,70.90
2018-06-28T03:43:44.171Z,71.00
2018-06-28T03:44:47.548Z,71.10
2018-06-28T03:45:52.337Z,71.20
2018-06-28T03:46:55.744Z,71.20
2018-06-28T03:47:59.115Z,71.20
2018-06-28T03:49:02.528Z,71.20
2018-06-28T03:50:06.944Z,71.20
2018-06-28T03:51:11.491Z,71.30
2018-06-28T03:52:14.919Z,71.30
2018-06-28T03:53:18.308Z,71.40
2018-06-28T03:54:21.706Z,71.30
2018-06-28T03:55:27.684Z,71.40
2018-06-28T03:56:31.199Z,71.40
2018-06-28T03:57:34.584Z,71.40
2018-06-28T03:58:37.963Z,71.40
2018-06-28T03:59:41.368Z,71.40
2018-06-28T04:00:45.748Z,71.30
2018-06-28T04:02:52.727Z,71.20
2018-06-28T04:03:56.287Z,71.20
2018-06-28T04:04:59.720Z,71.20
2018-06-28T04:08:10.700Z,71.40
2018-06-28T04:09:14.120Z,71.40
2018-06-28T04:10:18.580Z,71.30
2018-06-28T04:11:23.343Z,71.10
2018-06-28T04:12:26.787Z,71.20
2018-06-28T04:13:30.220Z,71.30
2018-06-28T04:14:33.616Z,71.50
2018-06-28T04:15:38.163Z,71.60
2018-06-28T04:17:44.652Z,72.00
2018-06-28T04:18:48.100Z,71.70
2018-06-28T04:19:51.537Z,71.70
2018-06-28T04:20:55.828Z,71.70
2018-06-28T04:21:59.223Z,71.80
2018-06-28T04:23:02.607Z,71.90
2018-06-28T04:27:17.037Z,72.40
2018-06-28T04:28:20.404Z,72.40
2018-06-28T04:29:24.294Z,72.50
2018-06-28T04:30:28.874Z,72.40
2018-06-28T04:31:32.292Z,72.40
2018-06-28T04:32:35.695Z,72.20
2018-06-28T04:33:39.088Z,72.30
2018-06-28T04:34:42.472Z,72.20
2018-06-28T04:35:47.050Z,72.10
2018-06-28T04:36:50.463Z,72.00
2018-06-28T04:37:53.844Z,72.00
2018-06-28T04:38:57.216Z,72.00
2018-06-28T04:40:00.591Z,72.00
2018-06-28T04:41:05.279Z,72.00
2018-06-28T04:42:08.647Z,72.00
2018-06-28T04:43:12.027Z,72.00
2018-06-28T04:44:15.407Z,72.10
2018-06-28T04:45:19.803Z,72.20
2018-06-28T04:46:24.001Z,72.90
2018-06-28T04:47:27.429Z,72.20
2018-06-28T04:48:30.796Z,72.40
2018-06-28T04:49:34.191Z,72.40
2018-06-28T04:50:38.539Z,72.40
2018-06-28T04:51:41.952Z,72.40
2018-06-28T04:52:45.324Z,72.40
2018-06-28T04:53:48.740Z,72.40
2018-06-28T04:54:52.130Z,72.50
2018-06-28T04:55:56.476Z,72.50
2018-06-28T04:56:59.889Z,72.60
2018-06-28T04:58:03.508Z,72.60
2018-06-28T04:59:06.880Z,72.80
2018-06-28T05:00:11.017Z,72.80
2018-06-28T05:01:15.617Z,72.90
2018-06-28T05:03:22.113Z,72.90
2018-06-28T05:05:29.588Z,72.90
2018-06-28T05:09:42.232Z,73.40
2018-06-28T05:11:49.378Z,73.70
2018-06-28T05:12:52.747Z,73.10
2018-06-28T05:13:56.140Z,73.00
2018-06-28T05:14:59.513Z,72.80
2018-06-28T05:16:03.428Z,72.60
2018-06-28T05:17:06.835Z,72.60
2018-06-28T05:18:10.216Z,72.50
2018-06-28T05:19:13.784Z,72.50
2018-06-28T05:20:19.066Z,72.40
2018-06-28T05:21:23.396Z,72.20
2018-06-28T05:22:26.812Z,71.90
2018-06-28T05:23:30.185Z,71.80
2018-06-28T05:24:33.556Z,71.40
2018-06-28T05:25:38.193Z,70.90
2018-06-28T05:26:41.591Z,70.60
2018-06-28T05:27:44.975Z,70.50
2018-06-28T05:28:48.363Z,70.50
2018-06-28T05:29:51.754Z,70.40
2018-06-28T05:30:56.259Z,70.20
2018-06-28T05:36:13.719Z,69.40
2018-06-28T05:37:17.115Z,69.20
2018-06-28T05:39:23.590Z,68.70
2018-06-28T05:41:31.783Z,68.20
2018-06-28T05:42:35.175Z,67.90
2018-06-28T05:45:45.825Z,67.10
2018-06-28T05:46:49.231Z,66.70
2018-06-28T05:48:55.686Z,66.40
2018-06-28T05:49:59.060Z,66.40
2018-06-28T05:51:03.577Z,66.40
2018-06-28T05:54:13.247Z,66.20
2018-06-28T05:55:17.716Z,66.10
2018-06-28T05:56:22.985Z,66.10
2018-06-28T05:57:26.394Z,66.70
2018-06-28T05:58:29.766Z,66.00
2018-06-28T06:00:37.313Z,66.10
2018-06-28T06:02:43.779Z,66.10
2018-06-28T06:03:47.159Z,66.10
2018-06-28T06:04:50.544Z,66.00
2018-06-28T06:05:55.012Z,65.90
2018-06-28T06:06:58.420Z,65.70
2018-06-28T06:08:01.788Z,65.60
2018-06-28T06:09:07.387Z,65.60
2018-06-28T06:10:11.843Z,65.40
2018-06-28T06:11:16.232Z,65.20
2018-06-28T06:12:19.640Z,65.00
2018-06-28T06:13:23.023Z,64.90
2018-06-28T06:14:26.406Z,64.70
2018-06-28T06:15:30.909Z,64.50
2018-06-28T06:16:34.642Z,64.40
2018-06-28T06:17:38.023Z,64.40
2018-06-28T06:18:41.407Z,65.10
2018-06-28T06:19:44.778Z,64.40
2018-06-28T06:20:49.323Z,64.40
2018-06-28T06:21:52.736Z,64.50
2018-06-28T06:23:59.183Z,64.70
2018-06-28T06:25:02.593Z,64.60
2018-06-28T06:29:16.573Z,64.60
2018-06-28T06:30:21.059Z,64.40
2018-06-28T06:31:25.349Z,64.40
2018-06-28T06:32:28.771Z,64.40
2018-06-28T06:33:32.147Z,64.40
2018-06-28T06:34:35.519Z,64.40
2018-06-28T06:35:40.143Z,64.40
2018-06-28T06:36:43.560Z,64.30
2018-06-28T06:37:46.956Z,63.70
2018-06-28T06:38:50.336Z,63.60
2018-06-28T06:39:53.718Z,63.40
2018-06-28T06:40:58.108Z,63.40
2018-06-28T06:42:01.538Z,63.30
2018-06-28T06:43:05.288Z,63.30
2018-06-28T06:44:08.681Z,63.20
2018-06-28T06:45:13.723Z,63.10
2018-06-28T06:46:18.266Z,63.00
2018-06-28T06:48:24.775Z,63.00
2018-06-28T06:49:28.151Z,63.00
2018-06-28T06:50:32.624Z,63.00
2018-06-28T06:51:36.036Z,63.00
2018-06-28T06:53:42.523Z,63.50
2018-06-28T06:54:45.908Z,63.00
2018-06-28T06:55:50.601Z,62.30
2018-06-28T06:57:57.304Z,62.10
2018-06-28T06:59:00.683Z,62.00
2018-06-28T07:00:05.417Z,62.00
2018-06-28T07:01:09.978Z,62.00
2018-06-28T07:02:13.373Z,62.00
2018-06-28T07:03:16.763Z,62.30
2018-06-28T07:04:20.205Z,61.90
2018-06-28T07:05:25.735Z,62.20
2018-06-28T07:06:29.684Z,62.00
2018-06-28T07:07:33.059Z,62.00
2018-06-28T07:08:36.451Z,62.60
2018-06-28T07:09:39.844Z,61.80
2018-06-28T07:10:44.253Z,61.70
2018-06-28T07:11:47.653Z,61.50
2018-06-28T07:13:54.194Z,61.30
2018-06-28T07:14:57.540Z,61.70
2018-06-28T07:16:02.177Z,60.80
2018-06-28T07:17:05.539Z,60.50
2018-06-28T07:18:08.920Z,60.30
2018-06-28T07:19:12.324Z,60.40
2018-06-28T07:20:16.878Z,60.40
2018-06-28T07:21:21.183Z,60.30
2018-06-28T07:22:24.591Z,60.30
2018-06-28T07:23:27.976Z,60.40
2018-06-28T07:24:31.374Z,60.40
2018-06-28T07:25:35.762Z,60.20
2018-06-28T07:26:39.159Z,60.10
2018-06-28T07:27:42.531Z,60.10
2018-06-28T07:28:45.924Z,60.00
2018-06-28T07:29:49.787Z,60.10
2018-06-28T07:30:54.203Z,60.20
2018-06-28T07:31:57.644Z,60.30
2018-06-28T07:33:01.069Z,59.70
2018-06-28T07:34:04.415Z,59.50
2018-06-28T07:35:08.919Z,59.30
2018-06-28T07:36:13.427Z,59.30
2018-06-28T07:37:16.827Z,59.20
2018-06-28T07:38:20.203Z,59.20
2018-06-28T07:39:24.116Z,59.40
2018-06-28T07:40:28.747Z,59.50
2018-06-28T07:42:35.251Z,59.20
2018-06-28T07:43:38.632Z,59.40
2018-06-28T07:49:58.988Z,59.70
2018-06-28T07:51:03.821Z,59.70
2018-06-28T07:52:07.280Z,59.70
2018-06-28T07:53:10.672Z,59.70
2018-06-28T07:54:14.051Z,59.70
2018-06-28T07:55:18.767Z,59.70
2018-06-28T07:56:23.180Z,59.80
2018-06-28T07:57:26.606Z,59.80
2018-06-28T07:58:29.984Z,60.10
2018-06-28T07:59:33.355Z,59.10
2018-06-28T08:00:37.742Z,58.90
2018-06-28T08:01:41.161Z,58.20
2018-06-28T08:02:44.591Z,57.70
2018-06-28T08:03:48.357Z,57.40
2018-06-28T08:04:51.952Z,57.30
2018-06-28T08:05:57.241Z,57.10
2018-06-28T08:07:00.774Z,57.00
2018-06-28T08:08:04.154Z,56.90
2018-06-28T08:09:08.045Z,56.70
2018-06-28T08:10:12.522Z,56.50
2018-06-28T08:11:17.352Z,56.30
2018-06-28T08:12:20.764Z,56.40
2018-06-28T08:13:24.568Z,56.70
2018-06-28T08:14:27.948Z,56.80
2018-06-28T08:15:32.299Z,56.70
2018-06-28T08:16:35.716Z,56.70
2018-06-28T08:17:39.108Z,56.40
2018-06-28T08:18:42.496Z,56.60
2018-06-28T08:19:45.867Z,56.60
2018-06-28T08:20:50.557Z,56.70
2018-06-28T08:21:53.992Z,56.50
2018-06-28T08:22:57.392Z,56.20
2018-06-28T08:24:00.780Z,55.90
2018-06-28T08:25:05.256Z,55.20
2018-06-28T08:26:09.706Z,54.80
2018-06-28T08:27:13.108Z,54.60
2018-06-28T08:28:16.510Z,54.60
2018-06-28T08:29:26.275Z,54.00
2018-06-28T08:30:30.822Z,54.10
2018-06-28T08:31:34.822Z,54.10
2018-06-28T08:32:38.215Z,53.80
2018-06-28T08:33:41.599Z,53.80
2018-06-28T08:34:45.005Z,53.60
2018-06-28T08:35:50.211Z,53.60
2018-06-28T08:36:53.623Z,52.90
2018-06-28T08:39:00.295Z,52.40
2018-06-28T08:41:08.460Z,52.40
2018-06-28T08:42:11.864Z,52.50
2018-06-28T08:43:15.824Z,52.30
2018-06-28T08:44:19.153Z,52.00
2018-06-28T08:45:23.675Z,51.10
2018-06-28T08:46:27.985Z,51.20
2018-06-28T08:47:31.379Z,51.20
2018-06-28T08:48:34.787Z,51.50
2018-06-28T08:49:38.177Z,51.50
2018-06-28T08:50:42.681Z,51.30
2018-06-28T08:51:46.119Z,51.10
2018-06-28T08:52:49.501Z,50.90
2018-06-28T08:53:52.949Z,51.20
2018-06-28T08:54:56.338Z,50.70
2018-06-28T08:56:01.052Z,50.70
2018-06-28T08:57:04.484Z,50.80
2018-06-28T08:58:07.887Z,50.90
2018-06-28T08:59:11.276Z,51.10
2018-06-28T09:00:16.151Z,51.20
2018-06-28T09:01:20.692Z,51.20
2018-06-28T09:02:24.132Z,51.20
2018-06-28T09:03:27.859Z,51.20
2018-06-28T09:04:31.464Z,51.40
2018-06-28T09:05:37.554Z,51.40
2018-06-28T09:06:40.959Z,51.40
2018-06-28T09:07:44.341Z,51.40
2018-06-28T09:08:47.751Z,51.40
2018-06-28T09:09:51.361Z,51.40
2018-06-28T09:10:58.541Z,51.40
2018-06-28T09:14:08.576Z,51.60
2018-06-28T09:15:13.063Z,51.70
2018-06-28T09:16:17.458Z,51.40
2018-06-28T09:17:20.872Z,50.40
2018-06-28T09:18:24.243Z,50.20
2018-06-28T09:19:27.627Z,50.30
2018-06-28T09:20:32.038Z,50.40
2018-06-28T09:21:35.468Z,50.50
2018-06-28T09:22:38.925Z,50.90
2018-06-28T09:23:42.232Z,51.00
2018-06-28T09:24:45.615Z,51.20
2018-06-28T09:25:50.029Z,51.20
2018-06-28T09:26:53.441Z,51.20
2018-06-28T09:27:56.811Z,51.30
2018-06-28T09:29:00.191Z,51.40
2018-06-28T09:30:04.077Z,51.60
2018-06-28T09:31:08.568Z,51.70
2018-06-28T09:32:11.995Z,51.90
2018-06-28T09:33:15.407Z,52.00
2018-06-28T09:35:22.871Z,51.80
2018-06-28T09:36:27.817Z,51.60
2018-06-28T09:37:31.235Z,51.50
2018-06-28T09:38:34.613Z,51.40
2018-06-28T09:39:37.992Z,51.30
2018-06-28T09:40:42.753Z,51.40
2018-06-28T09:41:46.195Z,51.60
2018-06-28T09:42:49.815Z,51.90
2018-06-28T09:43:53.200Z,51.80
2018-06-28T09:44:56.575Z,51.70
2018-06-28T09:46:01.950Z,51.30
2018-06-28T09:47:05.381Z,51.20
2018-06-28T09:48:08.870Z,51.30
2018-06-28T09:49:12.244Z,51.40
2018-06-28T09:50:16.721Z,51.50
2018-06-28T09:51:21.331Z,51.60
2018-06-28T09:52:24.808Z,51.10
2018-06-28T09:53:28.183Z,51.30
2018-06-28T09:54:31.567Z,51.00
2018-06-28T09:55:35.989Z,51.00
2018-06-28T09:57:44.503Z,50.90
2018-06-28T09:58:47.883Z,50.80
2018-06-28T09:59:51.259Z,50.20
2018-06-28T10:00:55.583Z,50.00
2018-06-28T10:03:02.182Z,50.00
2018-06-28T10:06:13.570Z,50.10
2018-06-28T10:07:16.985Z,50.10
2018-06-28T10:08:20.373Z,50.00
2018-06-28T10:09:23.763Z,50.00
2018-06-28T10:10:28.310Z,49.90
2018-06-28T10:11:32.048Z,49.70
2018-06-28T10:12:35.789Z,49.70
2018-06-28T10:13:39.179Z,49.90
2018-06-28T10:14:42.790Z,50.10
2018-06-28T10:15:47.248Z,50.30
2018-06-28T10:16:50.702Z,50.30
2018-06-28T10:17:54.390Z,49.90
2018-06-28T10:20:00.843Z,48.80
2018-06-28T10:21:06.250Z,49.40
2018-06-28T10:22:09.647Z,49.70
2018-06-28T10:23:13.061Z,49.80
2018-06-28T10:24:16.452Z,49.70
2018-06-28T10:26:25.154Z,49.30
2018-06-28T10:27:28.563Z,49.30
2018-06-28T10:29:35.035Z,49.40
2018-06-28T10:30:39.595Z,49.60
2018-06-28T10:31:43.019Z,49.70
2018-06-28T10:32:46.475Z,50.00
2018-06-28T10:34:52.883Z,49.30
2018-06-28T10:35:57.254Z,49.20
2018-06-28T10:37:00.828Z,49.30
2018-06-28T10:38:04.211Z,49.30
2018-06-28T10:39:08.934Z,49.20
2018-06-28T10:40:13.753Z,49.10
2018-06-28T10:41:19.551Z,49.10
2018-06-28T10:42:22.960Z,48.90
2018-06-28T10:43:26.371Z,49.00
2018-06-28T10:44:29.776Z,48.90
2018-06-28T10:45:34.185Z,49.10
2018-06-28T10:47:40.656Z,48.90
2018-06-28T10:48:44.188Z,49.60
2018-06-28T10:49:47.624Z,48.90
2018-06-28T10:50:52.054Z,48.70
2018-06-28T10:51:55.476Z,48.50
2018-06-28T10:52:58.859Z,48.40
2018-06-28T10:54:02.301Z,48.40
2018-06-28T10:55:06.835Z,48.40
2018-06-28T10:56:11.318Z,48.60
2018-06-28T10:57:14.699Z,48.70
2018-06-28T10:58:18.091Z,48.70
2018-06-28T10:59:21.484Z,48.70
2018-06-28T11:00:25.796Z,48.70
2018-06-28T11:01:29.767Z,48.80
2018-06-28T11:02:33.171Z,49.00
2018-06-28T11:03:36.551Z,49.00
2018-06-28T11:04:39.931Z,49.00
2018-06-28T11:05:44.342Z,49.40
2018-06-28T11:06:47.776Z,49.60
2018-06-28T11:07:51.187Z,49.40
2018-06-28T11:08:54.561Z,49.20
2018-06-28T11:09:57.941Z,48.90
2018-06-28T11:11:02.941Z,48.90
2018-06-28T11:12:06.604Z,48.80
2018-06-28T11:13:09.983Z,48.40
2018-06-28T11:14:13.387Z,48.10
2018-06-28T11:15:17.746Z,48.10
2018-06-28T11:16:23.029Z,48.20
2018-06-28T11:17:26.420Z,48.20
2018-06-28T11:18:29.811Z,48.30
2018-06-28T11:19:33.187Z,48.60
2018-06-28T11:20:37.526Z,48.40
2018-06-28T11:21:40.943Z,48.60
2018-06-28T11:22:44.335Z,48.60
2018-06-28T11:23:47.731Z,48.50
2018-06-28T11:24:51.116Z,48.30
2018-06-28T11:26:01.680Z,48.40
2018-06-28T11:27:05.139Z,48.10
2018-06-28T11:28:08.524Z,47.90
2018-06-28T11:29:12.024Z,47.60
2018-06-28T11:30:16.536Z,47.40
2018-06-28T11:31:21.007Z,47.40
2018-06-28T11:32:24.467Z,47.40
2018-06-28T11:34:30.935Z,47.40
2018-06-28T11:35:35.697Z,47.30
2018-06-28T11:36:39.119Z,47.70
2018-06-28T11:37:42.539Z,47.70
2018-06-28T11:38:45.973Z,47.50
2018-06-28T11:39:49.359Z,47.50
2018-06-28T11:40:54.379Z,47.50
2018-06-28T11:41:57.810Z,47.30
2018-06-28T11:43:01.203Z,47.10
2018-06-28T11:44:04.814Z,46.60
2018-06-28T11:45:09.260Z,47.10
2018-06-28T11:46:13.750Z,47.00
2018-06-28T11:47:17.167Z,47.40
2018-06-28T11:48:20.563Z,46.90
2018-06-28T11:49:23.975Z,46.70
2018-06-28T11:50:28.525Z,46.50
2018-06-28T11:51:31.943Z,46.50
2018-06-28T11:52:35.325Z,46.30
2018-06-28T11:53:38.722Z,46.20
2018-06-28T11:54:42.111Z,46.00
2018-06-28T11:55:46.600Z,45.90
2018-06-28T11:56:50.012Z,46.00
2018-06-28T11:57:53.395Z,45.70
2018-06-28T11:58:56.803Z,45.40
2018-06-28T12:01:04.513Z,45.70
2018-06-28T12:02:07.934Z,45.80
2018-06-28T12:03:11.323Z,45.70
2018-06-28T12:04:21.459Z,45.90
2018-06-28T12:05:26.011Z,46.10
2018-06-28T12:06:30.076Z,46.20
2018-06-28T12:07:33.467Z,46.40
2018-06-28T12:08:36.847Z,46.30
2018-06-28T12:09:40.239Z,46.20
2018-06-28T12:10:44.749Z,46.10
2018-06-28T12:11:48.159Z,46.00
2018-06-28T12:12:51.543Z,45.80
2018-06-28T12:13:54.948Z,45.70
2018-06-28T12:16:02.617Z,46.20
2018-06-28T12:18:09.291Z,45.30
2018-06-28T12:19:12.681Z,44.40
2018-06-28T12:20:17.128Z,44.20
2018-06-28T12:21:21.675Z,43.70
2018-06-28T12:22:25.133Z,43.60
2018-06-28T12:23:28.476Z,43.60
2018-06-28T12:24:31.860Z,42.90
2018-06-28T12:25:36.309Z,42.80
2018-06-28T12:26:39.714Z,42.80
2018-06-28T12:27:43.092Z,42.70
2018-06-28T12:28:46.467Z,42.70
2018-06-28T12:29:49.843Z,42.90
2018-06-28T12:31:57.303Z,43.50
2018-06-28T12:33:00.699Z,43.50
2018-06-28T12:34:04.072Z,43.30
2018-06-28T12:35:08.467Z,43.40
2018-06-28T12:36:12.993Z,43.40
2018-06-28T12:37:16.403Z,43.50
2018-06-28T12:38:19.788Z,43.50
2018-06-28T12:39:23.164Z,43.40
2018-06-28T12:40:28.438Z,43.30
2018-06-28T12:41:31.859Z,43.10
2018-06-28T12:42:35.765Z,43.10
2018-06-28T12:43:39.151Z,42.70
2018-06-28T12:44:42.547Z,42.60
2018-06-28T12:45:47.139Z,42.70
2018-06-28T12:48:59.344Z,42.70
2018-06-28T12:50:02.818Z,42.90
2018-06-28T12:51:07.396Z,42.60
2018-06-28T12:52:22.112Z,42.40
2018-06-28T12:53:25.500Z,42.10
2018-06-28T12:54:31.903Z,42.10
2018-06-28T12:56:51.413Z,42.10
2018-06-28T12:57:56.067Z,41.90
2018-06-28T13:00:07.274Z,42.20
2018-06-28T13:01:11.777Z,42.20
2018-06-28T13:02:15.176Z,42.40
2018-06-28T13:03:18.588Z,42.50
2018-06-28T13:04:21.968Z,42.60
2018-06-28T13:05:26.322Z,42.70
2018-06-28T13:06:30.235Z,43.00
2018-06-28T13:07:33.615Z,43.20
2018-06-28T13:08:37.018Z,43.30
2018-06-28T13:09:40.399Z,43.30
2018-06-28T13:10:44.898Z,43.30
2018-06-28T13:11:48.320Z,43.40
2018-06-28T13:12:51.710Z,43.30
2018-06-28T13:13:55.223Z,43.20
2018-06-28T13:14:58.633Z,43.30
2018-06-28T13:16:03.903Z,43.50
2018-06-28T13:17:07.316Z,43.50
2018-06-28T13:18:10.719Z,42.70
2018-06-28T13:19:14.111Z,42.50
2018-06-28T13:20:18.436Z,42.60
2018-06-28T13:21:22.712Z,42.60
2018-06-28T13:22:26.101Z,42.70
2018-06-28T13:23:29.495Z,42.70
2018-06-28T13:24:32.887Z,42.60
2018-06-28T13:26:40.166Z,43.40
2018-06-28T13:27:43.535Z,43.10
2018-06-28T13:28:47.112Z,43.30
2018-06-28T13:29:50.531Z,43.30
2018-06-28T13:34:04.815Z,43.10
2018-06-28T13:35:09.259Z,43.10
2018-06-28T13:36:13.727Z,43.00
2018-06-28T13:37:17.135Z,43.00
2018-06-28T13:38:20.524Z,43.00
2018-06-28T13:39:23.973Z,42.90
2018-06-28T13:40:28.483Z,43.00
2018-06-28T13:41:32.143Z,43.00
2018-06-28T13:42:35.303Z,43.00
2018-06-28T13:43:38.693Z,43.00
2018-06-28T13:44:42.063Z,42.80
2018-06-28T13:45:46.600Z,42.80
2018-06-28T13:46:50.020Z,42.60
2018-06-28T13:47:53.419Z,42.50
2018-06-28T13:48:56.807Z,42.60
2018-06-28T13:51:05.447Z,42.90
2018-06-28T13:52:08.859Z,42.50
2018-06-28T13:53:12.239Z,42.50
2018-06-28T13:54:15.739Z,42.30
2018-06-28T13:55:20.216Z,42.20
2018-06-28T13:56:24.692Z,42.40
2018-06-28T13:57:28.115Z,42.50
2018-06-28T13:58:31.562Z,42.70
2018-06-28T13:59:34.939Z,42.70
2018-06-28T14:00:39.312Z,42.60
2018-06-28T14:01:42.739Z,42.70
2018-06-28T14:02:46.128Z,42.90
2018-06-28T14:03:49.507Z,42.80
2018-06-28T14:04:52.903Z,42.80
2018-06-28T14:05:57.388Z,42.70
2018-06-28T14:07:00.844Z,42.60
2018-06-28T14:08:04.250Z,42.30
2018-06-28T14:09:10.576Z,42.20
2018-06-28T14:10:15.654Z,42.30
2018-06-28T14:11:19.970Z,42.50
2018-06-28T14:13:26.472Z,42.50
2018-06-28T14:14:29.871Z,42.40
2018-06-28T14:15:34.280Z,42.40
2018-06-28T14:16:37.778Z,42.30
2018-06-28T14:17:41.179Z,42.20
2018-06-28T14:18:44.578Z,42.20
2018-06-28T14:19:47.973Z,42.30
2018-06-28T14:20:52.578Z,42.40
2018-06-28T14:21:55.976Z,42.40
2018-06-28T14:22:59.391Z,42.30
2018-06-28T14:25:07.419Z,42.20
2018-06-28T14:26:12.441Z,41.50
2018-06-28T14:27:15.853Z,41.00
2018-06-28T14:28:19.255Z,41.10
2018-06-28T14:29:22.631Z,41.10
2018-06-28T14:30:27.268Z,41.40
2018-06-28T14:31:31.243Z,41.40
2018-06-28T14:32:34.619Z,41.00
2018-06-28T14:33:38.058Z,41.10
2018-06-28T14:34:41.404Z,41.10
2018-06-28T14:35:45.783Z,40.90
2018-06-28T14:36:49.303Z,40.80
2018-06-28T14:37:52.675Z,40.80
2018-06-28T14:38:56.071Z,40.80
2018-06-28T14:39:59.704Z,40.70
2018-06-28T14:41:04.095Z,40.80
2018-06-28T14:42:07.477Z,40.70
2018-06-28T14:43:10.851Z,40.80
2018-06-28T14:44:14.239Z,39.90
2018-06-28T14:45:18.620Z,39.70
2018-06-28T14:46:23.206Z,39.70
2018-06-28T14:47:26.622Z,39.90
2018-06-28T14:48:30.012Z,40.00
2018-06-28T14:49:33.404Z,39.90
2018-06-28T14:50:38.065Z,39.90
2018-06-28T14:51:41.485Z,39.60
2018-06-28T14:52:44.851Z,39.50
2018-06-28T14:54:51.362Z,39.30
2018-06-28T14:55:56.369Z,38.90
2018-06-28T14:56:59.779Z,39.00
2018-06-28T14:58:03.167Z,39.10
2018-06-28T14:59:06.547Z,38.70
2018-06-28T15:00:11.179Z,38.60
2018-06-28T15:01:15.917Z,38.60
2018-06-28T15:02:19.467Z,38.50
2018-06-28T15:03:22.839Z,38.40
2018-06-28T15:04:26.216Z,38.20
2018-06-28T15:05:31.773Z,38.30
2018-06-28T15:06:35.178Z,37.90
2018-06-28T15:07:38.561Z,37.40
2018-06-28T15:08:41.939Z,37.50
2018-06-28T15:09:45.315Z,37.30
2018-06-28T15:10:50.082Z,37.00
2018-06-28T15:11:53.475Z,36.70
2018-06-28T15:13:59.942Z,36.80
2018-06-28T15:16:08.534Z,37.00
2018-06-28T15:18:15.034Z,36.80
2018-06-28T15:19:18.411Z,36.80
2018-06-28T15:20:22.913Z,36.60
2018-06-28T15:21:27.467Z,36.80
2018-06-28T15:22:30.871Z,37.00
2018-06-28T15:23:34.256Z,37.10
2018-06-28T15:24:37.624Z,37.30